sensor_id;sensor_type;location;lat;lon;timestamp;pressure;altitude;pressure_sealevel;temperature;humidity
79347;BME280;68815;48.810;44.482;2023-07-31T00:01:24;100053;;;22.8;53
79347;BME280;68815;48.810;44.482;2023-07-31T00:04:26;100054;;;22.6;54.3
79347;BME280;68815;48.810;44.482;2023-07-31T00:07:28;100059;;;22.5;54.6
79347;BME280;68815;48.810;44.482;2023-07-31T00:10:29;100060;;;22.3;56.7
79347;BME280;68815;48.810;44.482;2023-07-31T00:13:31;100054;;;22;57.9
79347;BME280;68815;48.810;44.482;2023-07-31T00:16:33;100059;;;22.2;57.4
79347;BME280;68815;48.810;44.482;2023-07-31T00:19:34;100053;;;22;58
79347;BME280;68815;48.810;44.482;2023-07-31T00:22:36;100055;;;22;58.2
79347;BME280;68815;48.810;44.482;2023-07-31T00:25:38;100063;;;22.1;57.9
79347;BME280;68815;48.810;44.482;2023-07-31T00:28:40;100062;;;22;56.3
79347;BME280;68815;48.810;44.482;2023-07-31T00:31:41;100064;;;22.1;55.2
79347;BME280;68815;48.810;44.482;2023-07-31T00:34:43;100060;;;22.3;55
79347;BME280;68815;48.810;44.482;2023-07-31T00:37:45;100060;;;22.4;53.8
79347;BME280;68815;48.810;44.482;2023-07-31T00:40:46;100060;;;22.5;53.4
79347;BME280;68815;48.810;44.482;2023-07-31T00:43:48;100059;;;22.4;53.5
79347;BME280;68815;48.810;44.482;2023-07-31T00:46:49;100061;;;22.2;53.6
79347;BME280;68815;48.810;44.482;2023-07-31T00:49:51;100054;;;22.1;53.6
79347;BME280;68815;48.810;44.482;2023-07-31T00:52:53;100055;;;21.9;54.3
79347;BME280;68815;48.810;44.482;2023-07-31T00:55:55;100050;;;21.9;54.8
79347;BME280;68815;48.810;44.482;2023-07-31T00:58:57;100052;;;21.9;54.9
79347;BME280;68815;48.810;44.482;2023-07-31T01:01:59;100057;;;22.2;54.2
79347;BME280;68815;48.810;44.482;2023-07-31T01:05:02;100055;;;22.2;53.8
79347;BME280;68815;48.810;44.482;2023-07-31T01:08:11;100058;;;22.1;53.5
79347;BME280;68815;48.810;44.482;2023-07-31T01:11:16;100061;;;22.3;53.4
79347;BME280;68815;48.810;44.482;2023-07-31T01:14:18;100059;;;22.4;52.3
79347;BME280;68815;48.810;44.482;2023-07-31T01:17:20;100061;;;22.7;51.4
79347;BME280;68815;48.810;44.482;2023-07-31T01:20:23;100067;;;22.7;51.3
79347;BME280;68815;48.810;44.482;2023-07-31T01:23:40;100072;;;22.5;51.6
79347;BME280;68815;48.810;44.482;2023-07-31T01:26:52;100071;;;22.6;51.7
79347;BME280;68815;48.810;44.482;2023-07-31T01:30:00;100073;;;22.3;52.6
79347;BME280;68815;48.810;44.482;2023-07-31T01:33:07;100072;;;22.2;52.8
79347;BME280;68815;48.810;44.482;2023-07-31T01:36:10;100073;;;22.1;53.2
79347;BME280;68815;48.810;44.482;2023-07-31T01:39:11;100083;;;22;53.5
79347;BME280;68815;48.810;44.482;2023-07-31T01:42:13;100086;;;21.7;54.4
79347;BME280;68815;48.810;44.482;2023-07-31T01:45:14;100083;;;21.7;54.8
79347;BME280;68815;48.810;44.482;2023-07-31T01:48:16;100086;;;21.6;55.6
79347;BME280;68815;48.810;44.482;2023-07-31T01:51:17;100094;;;21.4;55.9
79347;BME280;68815;48.810;44.482;2023-07-31T01:54:19;100097;;;21.6;55.2
79347;BME280;68815;48.810;44.482;2023-07-31T01:57:20;100095;;;21.6;56
79347;BME280;68815;48.810;44.482;2023-07-31T02:00:22;100094;;;21.4;56.2
79347;BME280;68815;48.810;44.482;2023-07-31T02:03:23;100095;;;21.5;56
79347;BME280;68815;48.810;44.482;2023-07-31T02:06:25;100091;;;21.2;57.1
79347;BME280;68815;48.810;44.482;2023-07-31T02:09:26;100092;;;21.3;56.6
79347;BME280;68815;48.810;44.482;2023-07-31T02:12:28;100097;;;21.2;57.7
79347;BME280;68815;48.810;44.482;2023-07-31T02:15:29;100093;;;21.3;57.6
79347;BME280;68815;48.810;44.482;2023-07-31T02:18:31;100092;;;21.3;57.6
79347;BME280;68815;48.810;44.482;2023-07-31T02:21:33;100091;;;21.2;57.8
79347;BME280;68815;48.810;44.482;2023-07-31T02:24:34;100089;;;21.6;56.3
79347;BME280;68815;48.810;44.482;2023-07-31T02:27:36;100078;;;21.7;56.7
79347;BME280;68815;48.810;44.482;2023-07-31T02:30:37;100079;;;21.7;57
79347;BME280;68815;48.810;44.482;2023-07-31T02:33:40;100082;;;21.9;56.7
79347;BME280;68815;48.810;44.482;2023-07-31T02:36:41;100086;;;22.1;56.4
79347;BME280;68815;48.810;44.482;2023-07-31T02:39:43;100090;;;22.3;56.4
79347;BME280;68815;48.810;44.482;2023-07-31T02:42:44;100088;;;22.6;55.9
79347;BME280;68815;48.810;44.482;2023-07-31T02:45:50;100091;;;22.9;55
79347;BME280;68815;48.810;44.482;2023-07-31T02:48:52;100092;;;22.9;54.6
79347;BME280;68815;48.810;44.482;2023-07-31T02:51:54;100094;;;22.6;55.6
79347;BME280;68815;48.810;44.482;2023-07-31T02:54:55;100095;;;22.7;55.3
79347;BME280;68815;48.810;44.482;2023-07-31T02:57:57;100089;;;22.8;55.5
79347;BME280;68815;48.810;44.482;2023-07-31T03:00:59;100098;;;22.9;55.3
79347;BME280;68815;48.810;44.482;2023-07-31T03:04:00;100087;;;22.9;55.5
79347;BME280;68815;48.810;44.482;2023-07-31T03:07:02;100090;;;23;55
79347;BME280;68815;48.810;44.482;2023-07-31T03:10:04;100089;;;23.1;55.1
79347;BME280;68815;48.810;44.482;2023-07-31T03:13:06;100088;;;23;55.3
79347;BME280;68815;48.810;44.482;2023-07-31T03:16:08;100082;;;23.4;55.2
79347;BME280;68815;48.810;44.482;2023-07-31T03:19:09;100083;;;23.5;55.6
79347;BME280;68815;48.810;44.482;2023-07-31T03:22:11;100092;;;23.9;54.2
79347;BME280;68815;48.810;44.482;2023-07-31T03:25:12;100084;;;24.2;53.7
79347;BME280;68815;48.810;44.482;2023-07-31T03:28:14;100084;;;24.4;52.8
79347;BME280;68815;48.810;44.482;2023-07-31T03:31:16;100083;;;24.5;52.7
79347;BME280;68815;48.810;44.482;2023-07-31T03:34:17;100092;;;24.7;51.8
79347;BME280;68815;48.810;44.482;2023-07-31T03:37:19;100087;;;24.6;51.6
79347;BME280;68815;48.810;44.482;2023-07-31T03:40:20;100092;;;24.6;52
79347;BME280;68815;48.810;44.482;2023-07-31T03:43:22;100091;;;24.7;51.3
79347;BME280;68815;48.810;44.482;2023-07-31T03:46:24;100095;;;24.8;54.4
79347;BME280;68815;48.810;44.482;2023-07-31T03:49:26;100094;;;25.1;52.3
79347;BME280;68815;48.810;44.482;2023-07-31T03:52:28;100099;;;25.3;52
79347;BME280;68815;48.810;44.482;2023-07-31T03:55:30;100096;;;25.1;52.1
79347;BME280;68815;48.810;44.482;2023-07-31T03:58:31;100102;;;25.5;51.9
79347;BME280;68815;48.810;44.482;2023-07-31T04:01:33;100100;;;25.4;52.1
79347;BME280;68815;48.810;44.482;2023-07-31T04:04:34;100102;;;25.8;51
79347;BME280;68815;48.810;44.482;2023-07-31T04:07:36;100107;;;26;50.1
79347;BME280;68815;48.810;44.482;2023-07-31T04:10:38;100115;;;26;50.3
79347;BME280;68815;48.810;44.482;2023-07-31T04:13:39;100114;;;26.2;49.6
79347;BME280;68815;48.810;44.482;2023-07-31T04:16:41;100115;;;26.6;49
79347;BME280;68815;48.810;44.482;2023-07-31T04:19:43;100113;;;26.8;48.7
79347;BME280;68815;48.810;44.482;2023-07-31T04:22:44;100116;;;27.4;47.8
79347;BME280;68815;48.810;44.482;2023-07-31T04:25:46;100108;;;27.4;47.6
79347;BME280;68815;48.810;44.482;2023-07-31T04:28:48;100114;;;27.6;47.3
79347;BME280;68815;48.810;44.482;2023-07-31T04:31:49;100108;;;27.2;47.8
79347;BME280;68815;48.810;44.482;2023-07-31T04:34:51;100108;;;26.7;48.2
79347;BME280;68815;48.810;44.482;2023-07-31T04:37:52;100111;;;26.6;50
79347;BME280;68815;48.810;44.482;2023-07-31T04:40:54;100110;;;26.6;49.7
79347;BME280;68815;48.810;44.482;2023-07-31T04:43:56;100111;;;26.8;50.2
79347;BME280;68815;48.810;44.482;2023-07-31T04:46:57;100115;;;27.6;48
79347;BME280;68815;48.810;44.482;2023-07-31T04:50:00;100115;;;28.5;46.3
79347;BME280;68815;48.810;44.482;2023-07-31T04:53:01;100107;;;29.1;43.3
79347;BME280;68815;48.810;44.482;2023-07-31T04:56:03;100104;;;29.6;41.9
79347;BME280;68815;48.810;44.482;2023-07-31T04:59:05;100114;;;29.8;43.3
79347;BME280;68815;48.810;44.482;2023-07-31T05:02:08;100112;;;29.8;42.6
79347;BME280;68815;48.810;44.482;2023-07-31T05:05:09;100111;;;30;41.5
79347;BME280;68815;48.810;44.482;2023-07-31T05:08:11;100116;;;30.8;40.6
79347;BME280;68815;48.810;44.482;2023-07-31T05:11:13;100110;;;31.5;38.8
79347;BME280;68815;48.810;44.482;2023-07-31T05:14:14;100114;;;32.3;36.5
79347;BME280;68815;48.810;44.482;2023-07-31T05:17:15;100120;;;31.9;37.1
79347;BME280;68815;48.810;44.482;2023-07-31T05:20:17;100124;;;31.1;37.1
79347;BME280;68815;48.810;44.482;2023-07-31T05:23:19;100127;;;30.8;38.2
79347;BME280;68815;48.810;44.482;2023-07-31T05:26:20;100128;;;30.4;39.1
79347;BME280;68815;48.810;44.482;2023-07-31T05:29:22;100127;;;29.7;40.3
79347;BME280;68815;48.810;44.482;2023-07-31T05:32:23;100122;;;29.7;40.6
79347;BME280;68815;48.810;44.482;2023-07-31T05:35:25;100127;;;29.2;41.4
79347;BME280;68815;48.810;44.482;2023-07-31T05:38:27;100125;;;30.6;39.5
79347;BME280;68815;48.810;44.482;2023-07-31T05:41:28;100129;;;31.9;36.7
79347;BME280;68815;48.810;44.482;2023-07-31T05:44:30;100129;;;31.9;35
79347;BME280;68815;48.810;44.482;2023-07-31T05:47:32;100131;;;30.9;36.3
79347;BME280;68815;48.810;44.482;2023-07-31T05:50:35;100129;;;30.3;37.6
79347;BME280;68815;48.810;44.482;2023-07-31T05:53:37;100127;;;30.6;35.9
79347;BME280;68815;48.810;44.482;2023-07-31T05:56:39;100130;;;32.5;33.9
79347;BME280;68815;48.810;44.482;2023-07-31T05:59:40;100124;;;34;31.4
79347;BME280;68815;48.810;44.482;2023-07-31T06:02:42;100126;;;35.6;28.8
79347;BME280;68815;48.810;44.482;2023-07-31T06:05:43;100127;;;35.3;28.3
79347;BME280;68815;48.810;44.482;2023-07-31T06:08:45;100124;;;35.9;28.2
79347;BME280;68815;48.810;44.482;2023-07-31T06:11:46;100122;;;35.5;28.6
79347;BME280;68815;48.810;44.482;2023-07-31T06:14:48;100119;;;34.5;30.8
79347;BME280;68815;48.810;44.482;2023-07-31T06:17:50;100119;;;33.8;31.4
79347;BME280;68815;48.810;44.482;2023-07-31T06:20:51;100125;;;33.2;31.7
79347;BME280;68815;48.810;44.482;2023-07-31T06:23:53;100120;;;32.9;31.9
79347;BME280;68815;48.810;44.482;2023-07-31T06:26:54;100121;;;33;31
79347;BME280;68815;48.810;44.482;2023-07-31T06:29:56;100123;;;33.1;30.1
79347;BME280;68815;48.810;44.482;2023-07-31T06:32:58;100121;;;32.8;31.1
79347;BME280;68815;48.810;44.482;2023-07-31T06:35:59;100123;;;32.8;31.6
79347;BME280;68815;48.810;44.482;2023-07-31T06:39:01;100122;;;32.8;31
79347;BME280;68815;48.810;44.482;2023-07-31T06:42:03;100118;;;32.8;31.6
79347;BME280;68815;48.810;44.482;2023-07-31T06:45:05;100117;;;32.9;32.5
79347;BME280;68815;48.810;44.482;2023-07-31T06:48:08;100120;;;33.2;31.5
79347;BME280;68815;48.810;44.482;2023-07-31T06:51:10;100119;;;33.1;31.6
79347;BME280;68815;48.810;44.482;2023-07-31T06:54:13;100120;;;33.1;31.9
79347;BME280;68815;48.810;44.482;2023-07-31T06:57:15;100120;;;32.8;30.4
79347;BME280;68815;48.810;44.482;2023-07-31T07:00:17;100121;;;32.9;31.7
79347;BME280;68815;48.810;44.482;2023-07-31T07:03:19;100125;;;32.5;30.7
79347;BME280;68815;48.810;44.482;2023-07-31T07:06:22;100117;;;32.8;31.6
79347;BME280;68815;48.810;44.482;2023-07-31T07:09:23;100123;;;33;30.8
79347;BME280;68815;48.810;44.482;2023-07-31T07:12:25;100124;;;33;30.8
79347;BME280;68815;48.810;44.482;2023-07-31T07:15:26;100116;;;32.9;29.7
79347;BME280;68815;48.810;44.482;2023-07-31T07:18:28;100119;;;32.4;30.9
79347;BME280;68815;48.810;44.482;2023-07-31T07:21:30;100115;;;32.2;31.5
79347;BME280;68815;48.810;44.482;2023-07-31T07:24:31;100118;;;32.3;30.7
79347;BME280;68815;48.810;44.482;2023-07-31T07:27:34;100110;;;32.2;30.8
79347;BME280;68815;48.810;44.482;2023-07-31T07:30:35;100114;;;31.9;32.1
79347;BME280;68815;48.810;44.482;2023-07-31T07:33:37;100114;;;32;32
79347;BME280;68815;48.810;44.482;2023-07-31T07:36:39;100109;;;31.5;31.2
79347;BME280;68815;48.810;44.482;2023-07-31T07:39:42;100110;;;31.8;32.1
79347;BME280;68815;48.810;44.482;2023-07-31T07:42:44;100106;;;31.6;32.4
79347;BME280;68815;48.810;44.482;2023-07-31T07:45:46;100103;;;31.6;31.6
79347;BME280;68815;48.810;44.482;2023-07-31T07:48:47;100106;;;31.5;32.3
79347;BME280;68815;48.810;44.482;2023-07-31T07:51:49;100112;;;30.7;33
79347;BME280;68815;48.810;44.482;2023-07-31T07:54:52;100114;;;30.5;34.1
79347;BME280;68815;48.810;44.482;2023-07-31T07:57:53;100114;;;30.7;33.2
79347;BME280;68815;48.810;44.482;2023-07-31T08:00:55;100109;;;30.8;33.6
79347;BME280;68815;48.810;44.482;2023-07-31T08:03:58;100102;;;31.3;33.1
79347;BME280;68815;48.810;44.482;2023-07-31T08:07:00;100100;;;31.3;33.2
79347;BME280;68815;48.810;44.482;2023-07-31T08:10:01;100099;;;31.9;33.1
79347;BME280;68815;48.810;44.482;2023-07-31T08:13:05;100097;;;31.8;31.9
79347;BME280;68815;48.810;44.482;2023-07-31T08:16:07;100093;;;31.2;32
79347;BME280;68815;48.810;44.482;2023-07-31T08:19:09;100086;;;31.1;32.3
79347;BME280;68815;48.810;44.482;2023-07-31T08:22:10;100091;;;31;32.7
79347;BME280;68815;48.810;44.482;2023-07-31T08:25:12;100093;;;31.1;32.6
79347;BME280;68815;48.810;44.482;2023-07-31T08:28:13;100095;;;31;32.7
79347;BME280;68815;48.810;44.482;2023-07-31T08:31:15;100096;;;30.9;32.8
79347;BME280;68815;48.810;44.482;2023-07-31T08:34:17;100096;;;31.1;33.5
79347;BME280;68815;48.810;44.482;2023-07-31T08:37:18;100087;;;31;32.2
79347;BME280;68815;48.810;44.482;2023-07-31T08:40:20;100094;;;30.9;33.5
79347;BME280;68815;48.810;44.482;2023-07-31T08:43:22;100083;;;30.8;32.9
79347;BME280;68815;48.810;44.482;2023-07-31T08:46:26;100087;;;31.1;34.5
79347;BME280;68815;48.810;44.482;2023-07-31T08:49:28;100087;;;31.1;32.4
79347;BME280;68815;48.810;44.482;2023-07-31T08:52:31;100078;;;31.1;33.1
79347;BME280;68815;48.810;44.482;2023-07-31T08:55:33;100079;;;31.1;32.3
79347;BME280;68815;48.810;44.482;2023-07-31T08:58:37;100077;;;30.9;33
79347;BME280;68815;48.810;44.482;2023-07-31T09:01:43;100073;;;30.7;33.3
79347;BME280;68815;48.810;44.482;2023-07-31T09:04:49;100076;;;30.8;32.4
79347;BME280;68815;48.810;44.482;2023-07-31T09:07:51;100074;;;30.8;33.1
79347;BME280;68815;48.810;44.482;2023-07-31T09:10:52;100076;;;30.8;32.7
79347;BME280;68815;48.810;44.482;2023-07-31T09:13:57;100066;;;30.8;30.3
79347;BME280;68815;48.810;44.482;2023-07-31T09:16:59;100069;;;30.6;30.2
79347;BME280;68815;48.810;44.482;2023-07-31T09:20:14;100074;;;30.8;32.4
79347;BME280;68815;48.810;44.482;2023-07-31T09:23:16;100064;;;30.9;31.6
79347;BME280;68815;48.810;44.482;2023-07-31T09:26:29;100063;;;30.9;32
79347;BME280;68815;48.810;44.482;2023-07-31T09:29:31;100068;;;31;31.5
79347;BME280;68815;48.810;44.482;2023-07-31T09:32:33;100064;;;31;30.7
79347;BME280;68815;48.810;44.482;2023-07-31T09:35:35;100068;;;31.1;31
79347;BME280;68815;48.810;44.482;2023-07-31T09:38:37;100068;;;31.1;31.3
79347;BME280;68815;48.810;44.482;2023-07-31T09:41:39;100064;;;30.9;31.2
79347;BME280;68815;48.810;44.482;2023-07-31T09:44:41;100067;;;30.7;30.5
79347;BME280;68815;48.810;44.482;2023-07-31T09:47:46;100067;;;30.7;30.7
79347;BME280;68815;48.810;44.482;2023-07-31T09:50:48;100059;;;31;32.2
79347;BME280;68815;48.810;44.482;2023-07-31T09:53:50;100060;;;30.8;30.9
79347;BME280;68815;48.810;44.482;2023-07-31T09:56:52;100066;;;30.7;31.4
79347;BME280;68815;48.810;44.482;2023-07-31T09:59:55;100059;;;30.5;32
79347;BME280;68815;48.810;44.482;2023-07-31T10:02:58;100054;;;30.3;31.9
79347;BME280;68815;48.810;44.482;2023-07-31T10:06:02;100062;;;30.2;32.7
79347;BME280;68815;48.810;44.482;2023-07-31T10:09:06;100061;;;30.2;30.6
79347;BME280;68815;48.810;44.482;2023-07-31T10:12:09;100053;;;30.3;30.4
79347;BME280;68815;48.810;44.482;2023-07-31T10:15:15;100052;;;30.3;30.6
79347;BME280;68815;48.810;44.482;2023-07-31T10:18:17;100055;;;30.6;31.5
79347;BME280;68815;48.810;44.482;2023-07-31T10:21:19;100057;;;30.6;29.7
79347;BME280;68815;48.810;44.482;2023-07-31T10:24:22;100055;;;30.5;29.7
79347;BME280;68815;48.810;44.482;2023-07-31T10:27:25;100048;;;30.2;30.4
79347;BME280;68815;48.810;44.482;2023-07-31T10:30:27;100046;;;30.1;30
79347;BME280;68815;48.810;44.482;2023-07-31T10:33:30;100046;;;30;30.3
79347;BME280;68815;48.810;44.482;2023-07-31T10:36:31;100049;;;30.1;31.3
79347;BME280;68815;48.810;44.482;2023-07-31T10:39:35;100045;;;30.4;30
79347;BME280;68815;48.810;44.482;2023-07-31T10:42:38;100038;;;30.9;29
79347;BME280;68815;48.810;44.482;2023-07-31T10:45:42;100039;;;31;29.3
79347;BME280;68815;48.810;44.482;2023-07-31T10:48:44;100041;;;30.8;29.2
79347;BME280;68815;48.810;44.482;2023-07-31T10:51:47;100032;;;30.8;30.8
79347;BME280;68815;48.810;44.482;2023-07-31T10:54:49;100029;;;31;29
79347;BME280;68815;48.810;44.482;2023-07-31T10:57:52;100024;;;31;29.6
79347;BME280;68815;48.810;44.482;2023-07-31T11:01:05;100033;;;31.1;28.9
79347;BME280;68815;48.810;44.482;2023-07-31T11:04:10;100032;;;31.1;28.8
79347;BME280;68815;48.810;44.482;2023-07-31T11:07:12;100033;;;31.3;29.6
79347;BME280;68815;48.810;44.482;2023-07-31T11:10:16;100030;;;31.3;28.7
79347;BME280;68815;48.810;44.482;2023-07-31T11:13:18;100027;;;30.9;29.7
79347;BME280;68815;48.810;44.482;2023-07-31T11:16:20;100025;;;30.6;29.4
79347;BME280;68815;48.810;44.482;2023-07-31T11:19:23;100023;;;30.5;29.6
79347;BME280;68815;48.810;44.482;2023-07-31T11:22:24;100022;;;30.7;30.3
79347;BME280;68815;48.810;44.482;2023-07-31T11:25:26;100013;;;30.6;29.2
79347;BME280;68815;48.810;44.482;2023-07-31T11:28:31;100014;;;30.6;29.6
79347;BME280;68815;48.810;44.482;2023-07-31T11:31:33;100019;;;30.7;29.2
79347;BME280;68815;48.810;44.482;2023-07-31T11:34:53;100017;;;30.7;29.8
79347;BME280;68815;48.810;44.482;2023-07-31T11:37:56;100009;;;30.7;29.4
79347;BME280;68815;48.810;44.482;2023-07-31T11:40:59;100014;;;30.9;29.4
79347;BME280;68815;48.810;44.482;2023-07-31T11:44:02;100011;;;31;29.4
79347;BME280;68815;48.810;44.482;2023-07-31T11:47:04;100008;;;31;28.6
79347;BME280;68815;48.810;44.482;2023-07-31T11:50:10;100009;;;31;28.6
79347;BME280;68815;48.810;44.482;2023-07-31T11:53:13;100005;;;30.9;27.7
79347;BME280;68815;48.810;44.482;2023-07-31T11:56:17;100003;;;30.8;28.5
79347;BME280;68815;48.810;44.482;2023-07-31T11:59:19;100001;;;30.7;28.8
79347;BME280;68815;48.810;44.482;2023-07-31T12:02:21;99997;;;30.8;28
79347;BME280;68815;48.810;44.482;2023-07-31T12:05:23;99990;;;31;28.5
79347;BME280;68815;48.810;44.482;2023-07-31T12:08:25;99996;;;31.1;27.5
79347;BME280;68815;48.810;44.482;2023-07-31T12:11:27;100000;;;31.2;27.9
79347;BME280;68815;48.810;44.482;2023-07-31T12:14:29;99995;;;31.4;28
79347;BME280;68815;48.810;44.482;2023-07-31T12:17:30;99995;;;31.4;27.4
79347;BME280;68815;48.810;44.482;2023-07-31T12:20:32;99989;;;31.3;27.7
79347;BME280;68815;48.810;44.482;2023-07-31T12:23:36;99986;;;31.3;27.3
79347;BME280;68815;48.810;44.482;2023-07-31T12:26:38;99989;;;31.2;27.2
79347;BME280;68815;48.810;44.482;2023-07-31T12:29:41;99990;;;31.3;27.5
79347;BME280;68815;48.810;44.482;2023-07-31T12:32:43;99985;;;31.3;27.7
79347;BME280;68815;48.810;44.482;2023-07-31T12:35:46;99985;;;31.3;26.4
79347;BME280;68815;48.810;44.482;2023-07-31T12:38:49;99988;;;31.3;26.8
79347;BME280;68815;48.810;44.482;2023-07-31T12:41:51;99985;;;31.3;26.4
79347;BME280;68815;48.810;44.482;2023-07-31T12:44:52;99988;;;31.4;25.9
79347;BME280;68815;48.810;44.482;2023-07-31T12:47:54;99991;;;31.5;25.7
79347;BME280;68815;48.810;44.482;2023-07-31T12:50:55;99984;;;31.4;26.5
79347;BME280;68815;48.810;44.482;2023-07-31T12:53:57;99991;;;31.5;26.7
79347;BME280;68815;48.810;44.482;2023-07-31T12:56:59;99986;;;31.3;26.8
79347;BME280;68815;48.810;44.482;2023-07-31T13:00:01;99982;;;31.1;26.3
79347;BME280;68815;48.810;44.482;2023-07-31T13:03:03;99985;;;31;26.8
79347;BME280;68815;48.810;44.482;2023-07-31T13:06:05;99985;;;31;27.4
79347;BME280;68815;48.810;44.482;2023-07-31T13:09:06;99980;;;30.9;26.9
79347;BME280;68815;48.810;44.482;2023-07-31T13:12:08;99986;;;31;27.1
79347;BME280;68815;48.810;44.482;2023-07-31T13:15:10;99982;;;30.9;26.6
79347;BME280;68815;48.810;44.482;2023-07-31T13:18:11;99983;;;30.9;27
79347;BME280;68815;48.810;44.482;2023-07-31T13:21:13;99978;;;30.8;26
79347;BME280;68815;48.810;44.482;2023-07-31T13:24:15;99971;;;30.7;26.9
79347;BME280;68815;48.810;44.482;2023-07-31T13:27:22;99973;;;30.7;27.9
79347;BME280;68815;48.810;44.482;2023-07-31T13:30:24;99974;;;30.7;28
79347;BME280;68815;48.810;44.482;2023-07-31T13:33:25;99969;;;30.8;27.1
79347;BME280;68815;48.810;44.482;2023-07-31T13:36:27;99972;;;30.8;28.2
79347;BME280;68815;48.810;44.482;2023-07-31T13:39:28;99970;;;30.8;27.8
79347;BME280;68815;48.810;44.482;2023-07-31T13:42:30;99965;;;30.8;27.5
79347;BME280;68815;48.810;44.482;2023-07-31T13:45:31;99969;;;30.8;27.9
79347;BME280;68815;48.810;44.482;2023-07-31T13:48:34;99970;;;30.7;27.5
79347;BME280;68815;48.810;44.482;2023-07-31T13:51:36;99962;;;30.7;26.6
79347;BME280;68815;48.810;44.482;2023-07-31T13:54:37;99967;;;30.6;26.7
79347;BME280;68815;48.810;44.482;2023-07-31T13:57:39;99964;;;30.5;27.6
79347;BME280;68815;48.810;44.482;2023-07-31T14:00:41;99969;;;30.4;28.7
79347;BME280;68815;48.810;44.482;2023-07-31T14:03:42;99964;;;30.4;27.8
79347;BME280;68815;48.810;44.482;2023-07-31T14:06:44;99965;;;30.4;28
79347;BME280;68815;48.810;44.482;2023-07-31T14:09:46;99963;;;30.5;27.9
79347;BME280;68815;48.810;44.482;2023-07-31T14:12:47;99960;;;30.5;28.2
79347;BME280;68815;48.810;44.482;2023-07-31T14:15:49;99963;;;30.5;27.8
79347;BME280;68815;48.810;44.482;2023-07-31T14:18:50;99962;;;30.4;28
79347;BME280;68815;48.810;44.482;2023-07-31T14:21:52;99960;;;30.4;28
79347;BME280;68815;48.810;44.482;2023-07-31T14:24:54;99960;;;30.3;28.8
79347;BME280;68815;48.810;44.482;2023-07-31T14:27:56;99963;;;30.2;30
79347;BME280;68815;48.810;44.482;2023-07-31T14:30:57;99964;;;30.2;29.6
79347;BME280;68815;48.810;44.482;2023-07-31T14:33:59;99970;;;30.1;29.8
79347;BME280;68815;48.810;44.482;2023-07-31T14:37:01;99967;;;30;29.6
79347;BME280;68815;48.810;44.482;2023-07-31T14:40:03;99967;;;30;29
79347;BME280;68815;48.810;44.482;2023-07-31T14:43:05;99966;;;30;29.9
79347;BME280;68815;48.810;44.482;2023-07-31T14:46:06;99971;;;29.9;30
79347;BME280;68815;48.810;44.482;2023-07-31T14:49:08;99967;;;29.9;30.1
79347;BME280;68815;48.810;44.482;2023-07-31T14:52:10;99970;;;29.9;30.1
79347;BME280;68815;48.810;44.482;2023-07-31T14:55:11;99968;;;29.9;30.6
79347;BME280;68815;48.810;44.482;2023-07-31T14:58:13;99968;;;29.9;30.2
79347;BME280;68815;48.810;44.482;2023-07-31T15:01:14;99969;;;29.8;30.6
79347;BME280;68815;48.810;44.482;2023-07-31T15:04:16;99974;;;29.8;31
79347;BME280;68815;48.810;44.482;2023-07-31T15:07:18;99975;;;29.7;31.2
79347;BME280;68815;48.810;44.482;2023-07-31T15:10:19;99968;;;29.6;31.5
79347;BME280;68815;48.810;44.482;2023-07-31T15:13:21;99970;;;29.5;31.3
79347;BME280;68815;48.810;44.482;2023-07-31T15:16:23;99968;;;29.4;31.3
79347;BME280;68815;48.810;44.482;2023-07-31T15:19:24;99971;;;29.4;31.1
79347;BME280;68815;48.810;44.482;2023-07-31T15:22:26;99967;;;29.3;31.7
79347;BME280;68815;48.810;44.482;2023-07-31T15:25:28;99974;;;29.3;32
79347;BME280;68815;48.810;44.482;2023-07-31T15:28:30;99977;;;29.2;32
79347;BME280;68815;48.810;44.482;2023-07-31T15:31:32;99982;;;29.1;32.2
79347;BME280;68815;48.810;44.482;2023-07-31T15:34:33;99974;;;29.1;32.4
79347;BME280;68815;48.810;44.482;2023-07-31T15:37:35;99976;;;29.1;32.7
79347;BME280;68815;48.810;44.482;2023-07-31T15:40:38;99976;;;29;32.9
79347;BME280;68815;48.810;44.482;2023-07-31T15:43:39;99978;;;29;32.8
79347;BME280;68815;48.810;44.482;2023-07-31T15:46:41;99972;;;29;33.1
79347;BME280;68815;48.810;44.482;2023-07-31T15:49:42;99974;;;29;32.6
79347;BME280;68815;48.810;44.482;2023-07-31T15:52:44;99977;;;29;33.1
79347;BME280;68815;48.810;44.482;2023-07-31T15:55:46;99978;;;28.9;33.2
79347;BME280;68815;48.810;44.482;2023-07-31T15:58:47;99977;;;28.9;33.5
79347;BME280;68815;48.810;44.482;2023-07-31T16:01:49;99979;;;28.9;33.8
79347;BME280;68815;48.810;44.482;2023-07-31T16:04:50;99980;;;28.9;33.9
79347;BME280;68815;48.810;44.482;2023-07-31T16:07:52;99983;;;28.8;34.2
79347;BME280;68815;48.810;44.482;2023-07-31T16:10:54;99986;;;28.8;34.1
79347;BME280;68815;48.810;44.482;2023-07-31T16:13:55;99986;;;28.8;34.1
79347;BME280;68815;48.810;44.482;2023-07-31T16:16:57;99985;;;28.8;34.3
79347;BME280;68815;48.810;44.482;2023-07-31T16:19:59;99980;;;28.7;34
79347;BME280;68815;48.810;44.482;2023-07-31T16:23:00;99991;;;28.7;34.1
79347;BME280;68815;48.810;44.482;2023-07-31T16:26:02;99993;;;28.6;34.5
79347;BME280;68815;48.810;44.482;2023-07-31T16:29:03;99991;;;28.6;34.6
79347;BME280;68815;48.810;44.482;2023-07-31T16:32:07;99992;;;28.6;34.5
79347;BME280;68815;48.810;44.482;2023-07-31T16:35:08;99997;;;28.5;35.2
79347;BME280;68815;48.810;44.482;2023-07-31T16:38:10;100000;;;28.3;35.6
79347;BME280;68815;48.810;44.482;2023-07-31T16:41:12;100000;;;28.2;35.1
79347;BME280;68815;48.810;44.482;2023-07-31T16:44:14;100004;;;28.2;35.4
79347;BME280;68815;48.810;44.482;2023-07-31T16:47:15;100006;;;28.1;36.1
79347;BME280;68815;48.810;44.482;2023-07-31T16:50:17;100015;;;28;36.3
79347;BME280;68815;48.810;44.482;2023-07-31T16:53:19;100021;;;28;36.5
79347;BME280;68815;48.810;44.482;2023-07-31T16:56:20;100021;;;27.9;36.8